LIRQLIPE

Guest
Details From LIRQ - Firenze
To LIPE - Bologna
Flight Number -
Tags Routegen Generated
Created
Modified
Stats Distance 47 nm / 87 km
Max Altitude 100 ft / 30 m
Waypoints 5
Social Downloads 10
Likes 0
Share

Download

Looking for another format? Having issues loading an existing format? Contact us
Advertisement - Login to hide

Notes

Departing runway 4 LIRQ. Arriving runway 11 LIPE.

Route

LIRQ +43.86_+011.29 +44.18_+011.34 +44.50_+011.39 LIPE

ID Type Via Altitude (ft/m) Position (lat/lon) Dist (leg/tot) Name
O LIRQ APT - 0 / 0 43.81490 / 11.21283 - / 0 nm Firenze
+43.86_+011.29 LATLON - 100 / 30 43.86280 / 11.28804 4 / 4 nm
+44.18_+011.34 LATLON - 100 / 30 44.17995 / 11.34150 19 / 23 nm
+44.50_+011.39 LATLON - 100 / 30 44.49710 / 11.39497 19 / 42 nm
O LIPE APT - 0 / 0 44.52977 / 11.30442 4 / 47 nm

Altitude Profile

Advertisement - Login to hide

LIRQ

Details ICAO LIRQ (FLR)
Name Firenze-Peretola "Amerigo Vespucci"
Region Italy
Timezone Europe/Rome (UTC+2.0)
Stats Elevation 142 ft / 43 m (AMSL)
Location 43.810000° 11.205100°
Runways 1
Magnetic Variation 3.290° E

METAR

LIRQ 240220Z VRB01KT CAVOK 13/11 Q1019

Decode

TAF

TAF LIRQ 232300Z 2400/2424 VRB05KT CAVOK

Decode

Departure Runways

ID Width Length Bearing (true/mag) Surface Threshold Overrun Markings Lighting
05 98 ft / 30 m 5,123 ft / 1,561 m 48.10° / 44.81° ASPHALT 338 ft / 103 m 0 ft / 0 m PREC-APP CENTERLINE EDGE THRESHOLD SSALF TDZ REIL-OMNI
23 98 ft / 30 m 5,123 ft / 1,561 m 228.11° / 224.82° ASPHALT 1,903 ft / 580 m 0 ft / 0 m VISUAL CENTERLINE EDGE THRESHOLD REIL-OMNI

LIPE

Details ICAO LIPE (BLQ)
Name Bologna-Borgo Panigale "Guglielmo Marconi"
Region Italy
Timezone Europe/Rome (UTC+2.0)
Stats Elevation 123 ft / 37 m (AMSL)
Location 44.535600° 11.288300°
Runways 1
Magnetic Variation 3.340° E

METAR

LIPE 240220Z 19007KT CAVOK 15/10 Q1018

Decode

TAF

TAF LIPE 232300Z 2400/2424 VRB05KT CAVOK

Decode

Destination Runways

ID Width Length Bearing (true/mag) Surface Threshold Overrun Markings Lighting
12 148 ft / 45 m 9,206 ft / 2,806 m 116.79° / 113.45° ASPHALT 1,017 ft / 310 m 243 ft / 74 m PREC-APP CENTERLINE EDGE THRESHOLD ALSF-I TDZ REIL-OMNI
30 148 ft / 45 m 9,206 ft / 2,806 m 296.81° / 293.47° ASPHALT 1,188 ft / 362 m 180 ft / 55 m PREC-APP CENTERLINE EDGE THRESHOLD SALS REIL-OMNI

Approach Navaids

Runway Type Ident Frequency Range Bearing (true/mag) Slope Elevation
12 GS BLN 108.90 MHz 10 nm / 19 km 117.59° / 114.25 ° 3.00° 120 ft / 37 m (AMSL)
12 OM OM - - 116.80° / 113.46 ° - 123 ft / 37 m (AMSL)
12 DME BLN 108.90 MHz 18 nm / 33 km - - 131 ft / 40 m (AMSL)
12 LOC-ILS BLN 108.90 MHz 18 nm / 33 km 116.81° / 113.47 ° - 123 ft / 37 m (AMSL)
30 DME IBBP 109.75 MHz 18 nm / 33 km - - 123 ft / 37 m (AMSL)
30 LOC-ILS IBBP 109.75 MHz 18 nm / 33 km 296.66° / 293.32 ° - 123 ft / 37 m (AMSL)
30 GS IBBP 109.75 MHz 10 nm / 19 km 297.75° / 294.41 ° 3.50° 123 ft / 37 m (AMSL)

Popular Alternatives